Naven, Sweden

8:49 AM CEST on July 25, 2016 (GMT +0200)
Husaby | | Change Station

Elev 295 ft 58.53 °N, 13.38 °E | Updated 41 seconds ago

Clear
Clear
76.1 °F
Feels Like 78 °F
N
0.0
Wind Variable Wind from South
Gusts 0.7 mph

Today
High -- | Low -- °F
--% Chance of Precip.
Yesterday
High -- | Low -- °F
Precip. -- in
Pressure 30.04 in
Visibility 6.2 miles
Clouds
Heat Index 78 °F
Dew Point 64 °F
Humidity 67%
Rainfall 0.00 in
Snow Depth Not available.
4:42 AM 9:44 PM
Waning Gibbous, 69% visible
METAR ESIB 250620Z AUTO VRB01KT 9999 NCD 22/17 Q1017
Pressure 30.04 in
Visibility 6.2 miles
Clouds
Heat Index 78 °F
Dew Point 64 °F
Humidity 67%
Rainfall 0.00 in
Snow Depth Not available.
4:42 AM 9:44 PM
Waning Gibbous, 69% visible
METAR ESIB 250620Z AUTO VRB01KT 9999 NCD 22/17 Q1017

10-Day Weather Forecast

×

Almanac

Astronomy

Jul. 25, 2016 Rise Set
Actual Time
Civil Twilight
Nautical Twilight
Astronomical Twilight
Moon
Length of Visible Light
Length of Day
Tomorrow will be .
, % of the Moon is Illuminated

Today's Extremes

Country Highs Country Lows

Community

WunderPhotos

Upload Photos

1,927,275 photos uploaded!

WunderBlog® & News

Nearby

Air Quality

  Air Quality AQ Index Pollutant
Not available.

Snow Depth

Station Depth Elevation

Earthquake Activity

City Distance Mag. Time & Date
Minimum magnitude displayed is 2.5.

Coastal Water Temperatures

Place Temperature

Stations

Nearby Weather Stations

Station Location Temp. Windchill Dew Point Humidity Wind Precip. Elev Updated Type